Terminal Aerodrome Forecast
Issued by NWS Wilmington, OH

Current Version | Previous Version | Graphics & Text | Print | Product List | Glossary On
Versions: 1 2 3 4 5 6 7 8 9 10 11 12 13 14 15 16 17 18
665
FTUS41 KILN 230520
TAFDAY
TAF
KDAY 230520Z 2306/2406 VRB03KT P6SM BKN250
     FM231400 22008KT P6SM BKN120
     FM240000 19004KT P6SM FEW100=

USA.gov is the U.S. government's official web portal to all federal, state and local government web resources and services.